Hakon Mosby — LJIT — position and weather

sailwx.info

Track history (hours):
 
Tides and Currents Weather Stations Pressure Air Temp Water Temp Dewpoint Dewpoint Depression Visibility Wind Speed Wind Dir Waves Ship Positions

Oceanographic research ship Hakon Mosby (Norway)

Detailed information on ship capabilities available from University of Delaware's Ocean Information Center and ARCUS's ALIAS (Arctic Logistics Information and Support) project.

Last reported at 2016-Jul-15 13:07 UTC. Time now 2016-Jul-24 10:47 UTC.
Position N 63°29' E 009°02'.
Warning: this ship's position is 8 days out of date.

Type: Dredging. MMSI: 258244000.

Date/timePositionNaut miles runAvg speedWind from/ knotsBaromVisibWave heightAir tempDewpointWater temp
2016-Jul-15 13:07N 63°29' E 009°02'712.2
2016-Jul-15 12:33N 63°33' E 009°15'9411.7
2016-Jul-15 04:33N 64°51' E 011°13'1110.6
2016-Jul-15 03:33N 64°58' E 011°32'1211.4
2016-Jul-15 02:32N 65°07' E 011°49'1212.1
2016-Jul-15 01:31N 65°19' E 011°60'5011.3
2016-Jul-14 21:04N 66°06' E 012°42'1811.8
2016-Jul-14 19:33N 66°23' E 012°58'3411.2
2016-Jul-14 16:33N 66°54' E 013°27'1010.0
2016-Jul-14 15:33N 67°01' E 013°46'1111.3
2016-Jul-14 14:33N 67°10' E 014°03'1010.4
2016-Jul-14 13:33N 67°17' E 014°22'0 0.1
2016-Jul-14 12:33N 67°17' E 014°22'0 0.0
2016-Jul-14 11:33N 67°17' E 014°22'0 0.0
2016-Jul-14 10:33N 67°17' E 014°22'0 0.0
2016-Jul-14 09:33N 67°17' E 014°22'0 0.0
2016-Jul-14 08:33N 67°17' E 014°22'0 0.0
2016-Jul-14 07:33N 67°17' E 014°22'0 0.0
2016-Jul-14 06:33N 67°17' E 014°22'0 0.0
2016-Jul-14 05:33N 67°17' E 014°22'0 0.0
2016-Jul-14 04:33N 67°17' E 014°22'0 0.0
2016-Jul-14 03:33N 67°17' E 014°22'0 0.0
2016-Jul-14 02:33N 67°17' E 014°22'0 0.0
2016-Jul-14 01:33N 67°17' E 014°22'0 0.0
2016-Jul-14 00:33N 67°17' E 014°22'0 0.0
2016-Jul-13 23:33N 67°17' E 014°22'0 0.2
2016-Jul-13 22:34N 67°17' E 014°22'10 9.6
2016-Jul-13 21:33N 67°19' E 013°57'7 3.6
2016-Jul-13 19:32N 67°23' E 013°43'  
2016-Jul-10 04:33N 67°23' E 013°45'4 4.2
2016-Jul-10 03:32N 67°20' E 013°54'2 2.0
2016-Jul-10 02:33N 67°21' E 013°59'1 1.5
2016-Jul-10 01:33N 67°20' E 014°00'2 0.1
2016-Jul-08 16:33N 67°20' E 013°54'1 1.5
2016-Jul-08 15:33N 67°19' E 013°57'0 0.2
2016-Jul-08 14:31N 67°19' E 013°57'1 1.3
2016-Jul-08 13:33N 67°19' E 013°54'1 1.3
2016-Jul-08 12:33N 67°19' E 013°57'9 9.1
2016-Jul-08 11:34N 67°17' E 014°19'1 1.4
2016-Jul-08 10:33N 67°17' E 014°22'0 0.0
2016-Jul-08 09:34N 67°17' E 014°22'0 0.0
2016-Jul-08 08:34N 67°17' E 014°22'0 0.0
2016-Jul-08 07:33N 67°17' E 014°22'0 0.0
2016-Jul-08 06:34N 67°17' E 014°22'0 0.0
2016-Jul-08 04:34N 67°17' E 014°22'0 0.0
2016-Jul-08 03:34N 67°17' E 014°22'0 0.0
2016-Jul-08 02:33N 67°17' E 014°22'0 0.0
2016-Jul-08 01:33N 67°17' E 014°22'0 0.0
2016-Jul-08 00:34N 67°17' E 014°22'0 0.0
2016-Jul-07 23:34N 67°17' E 014°22'0 0.0
2016-Jul-07 22:33N 67°17' E 014°22'0 0.0
2016-Jul-07 21:33N 67°17' E 014°22'0 0.0
2016-Jul-07 20:34N 67°17' E 014°22'0 0.0
2016-Jul-07 19:34N 67°17' E 014°22'0 0.0
2016-Jul-07 18:33N 67°17' E 014°22'0 0.0
2016-Jul-07 17:33N 67°17' E 014°22'0 0.0
2016-Jul-07 16:34N 67°17' E 014°22'0 0.0
2016-Jul-07 15:33N 67°17' E 014°22'0 0.0
2016-Jul-07 14:33N 67°17' E 014°22'0 0.0
2016-Jul-07 13:34N 67°17' E 014°22'0 0.0
2016-Jul-07 12:33N 67°17' E 014°22'0 0.0
2016-Jul-07 11:34N 67°17' E 014°22'0 0.0
2016-Jul-07 10:33N 67°17' E 014°22'0 0.0
2016-Jul-07 09:33N 67°17' E 014°22'0 0.0
2016-Jul-07 08:34N 67°17' E 014°22'0 0.0
2016-Jul-07 07:33N 67°17' E 014°22'0 0.0
2016-Jul-07 06:33N 67°17' E 014°22'0 0.0
2016-Jul-07 05:33N 67°17' E 014°22'0 0.0
2016-Jul-07 04:33N 67°17' E 014°22'0 0.0
2016-Jul-07 03:34N 67°17' E 014°22'0 0.0
2016-Jul-07 02:33N 67°17' E 014°22'0 0.0
2016-Jul-07 01:34N 67°17' E 014°22'0 0.0
2016-Jul-07 00:34N 67°17' E 014°22'0 0.0
2016-Jul-06 23:34N 67°17' E 014°22'0 0.0
2016-Jul-06 22:34N 67°17' E 014°22'0 0.0
2016-Jul-06 21:33N 67°17' E 014°22'0 0.0
2016-Jul-06 20:34N 67°17' E 014°22'0 0.0
2016-Jul-06 19:34N 67°17' E 014°22'2 1.9
2016-Jul-06 18:33N 67°19' E 014°23'1010.3
2016-Jul-06 17:33N 67°30' E 014°23'1110.7
2016-Jul-06 16:32N 67°40' E 014°16'  
Track history (hours):
 
Tides and Currents Weather Stations Pressure Air Temp Water Temp Dewpoint Dewpoint Depression Visibility Wind Speed Wind Dir Waves Ship Positions

Oceanographic research ship Hakon Mosby (Norway)

Detailed information on ship capabilities available from University of Delaware's Ocean Information Center and ARCUS's ALIAS (Arctic Logistics Information and Support) project.

Last reported at 2016-Jul-15 13:07 UTC. Time now 2016-Jul-24 10:47 UTC.
Position N 63°29' E 009°02'.
Warning: this ship's position is 8 days out of date.

Type: Dredging. MMSI: 258244000.

Date/timePositionNaut miles runAvg speedWind from/ knotsBaromVisibWave heightAir tempDewpointWater temp
2016-Jul-15 13:07N 63°29' E 009°02'712.2
2016-Jul-15 12:33N 63°33' E 009°15'9411.7
2016-Jul-15 04:33N 64°51' E 011°13'1110.6
2016-Jul-15 03:33N 64°58' E 011°32'1211.4
2016-Jul-15 02:32N 65°07' E 011°49'1212.1
2016-Jul-15 01:31N 65°19' E 011°60'5011.3
2016-Jul-14 21:04N 66°06' E 012°42'1811.8
2016-Jul-14 19:33N 66°23' E 012°58'3411.2
2016-Jul-14 16:33N 66°54' E 013°27'1010.0
2016-Jul-14 15:33N 67°01' E 013°46'1111.3
2016-Jul-14 14:33N 67°10' E 014°03'1010.4
2016-Jul-14 13:33N 67°17' E 014°22'0 0.1
2016-Jul-14 12:33N 67°17' E 014°22'0 0.0
2016-Jul-14 11:33N 67°17' E 014°22'0 0.0
2016-Jul-14 10:33N 67°17' E 014°22'0 0.0
2016-Jul-14 09:33N 67°17' E 014°22'0 0.0
2016-Jul-14 08:33N 67°17' E 014°22'0 0.0
2016-Jul-14 07:33N 67°17' E 014°22'0 0.0
2016-Jul-14 06:33N 67°17' E 014°22'0 0.0
2016-Jul-14 05:33N 67°17' E 014°22'0 0.0
2016-Jul-14 04:33N 67°17' E 014°22'0 0.0
2016-Jul-14 03:33N 67°17' E 014°22'0 0.0
2016-Jul-14 02:33N 67°17' E 014°22'0 0.0
2016-Jul-14 01:33N 67°17' E 014°22'0 0.0
2016-Jul-14 00:33N 67°17' E 014°22'0 0.0
2016-Jul-13 23:33N 67°17' E 014°22'0 0.2
2016-Jul-13 22:34N 67°17' E 014°22'10 9.6
2016-Jul-13 21:33N 67°19' E 013°57'7 3.6
2016-Jul-13 19:32N 67°23' E 013°43'  
2016-Jul-10 04:33N 67°23' E 013°45'4 4.2
2016-Jul-10 03:32N 67°20' E 013°54'2 2.0
2016-Jul-10 02:33N 67°21' E 013°59'1 1.5
2016-Jul-10 01:33N 67°20' E 014°00'2 0.1
2016-Jul-08 16:33N 67°20' E 013°54'1 1.5
2016-Jul-08 15:33N 67°19' E 013°57'0 0.2
2016-Jul-08 14:31N 67°19' E 013°57'1 1.3
2016-Jul-08 13:33N 67°19' E 013°54'1 1.3
2016-Jul-08 12:33N 67°19' E 013°57'9 9.1
2016-Jul-08 11:34N 67°17' E 014°19'1 1.4
2016-Jul-08 10:33N 67°17' E 014°22'0 0.0
2016-Jul-08 09:34N 67°17' E 014°22'0 0.0
2016-Jul-08 08:34N 67°17' E 014°22'0 0.0
2016-Jul-08 07:33N 67°17' E 014°22'0 0.0
2016-Jul-08 06:34N 67°17' E 014°22'0 0.0
2016-Jul-08 04:34N 67°17' E 014°22'0 0.0
2016-Jul-08 03:34N 67°17' E 014°22'0 0.0
2016-Jul-08 02:33N 67°17' E 014°22'0 0.0
2016-Jul-08 01:33N 67°17' E 014°22'0 0.0
2016-Jul-08 00:34N 67°17' E 014°22'0 0.0
2016-Jul-07 23:34N 67°17' E 014°22'0 0.0
2016-Jul-07 22:33N 67°17' E 014°22'0 0.0
2016-Jul-07 21:33N 67°17' E 014°22'0 0.0
2016-Jul-07 20:34N 67°17' E 014°22'0 0.0
2016-Jul-07 19:34N 67°17' E 014°22'0 0.0
2016-Jul-07 18:33N 67°17' E 014°22'0 0.0
2016-Jul-07 17:33N 67°17' E 014°22'0 0.0
2016-Jul-07 16:34N 67°17' E 014°22'0 0.0
2016-Jul-07 15:33N 67°17' E 014°22'0 0.0
2016-Jul-07 14:33N 67°17' E 014°22'0 0.0
2016-Jul-07 13:34N 67°17' E 014°22'0 0.0
2016-Jul-07 12:33N 67°17' E 014°22'0 0.0
2016-Jul-07 11:34N 67°17' E 014°22'0 0.0
2016-Jul-07 10:33N 67°17' E 014°22'0 0.0
2016-Jul-07 09:33N 67°17' E 014°22'0 0.0
2016-Jul-07 08:34N 67°17' E 014°22'0 0.0
2016-Jul-07 07:33N 67°17' E 014°22'0 0.0
2016-Jul-07 06:33N 67°17' E 014°22'0 0.0
2016-Jul-07 05:33N 67°17' E 014°22'0 0.0
2016-Jul-07 04:33N 67°17' E 014°22'0 0.0
2016-Jul-07 03:34N 67°17' E 014°22'0 0.0
2016-Jul-07 02:33N 67°17' E 014°22'0 0.0
2016-Jul-07 01:34N 67°17' E 014°22'0 0.0
2016-Jul-07 00:34N 67°17' E 014°22'0 0.0
2016-Jul-06 23:34N 67°17' E 014°22'0 0.0
2016-Jul-06 22:34N 67°17' E 014°22'0 0.0
2016-Jul-06 21:33N 67°17' E 014°22'0 0.0
2016-Jul-06 20:34N 67°17' E 014°22'0 0.0
2016-Jul-06 19:34N 67°17' E 014°22'2 1.9
2016-Jul-06 18:33N 67°19' E 014°23'1010.3
2016-Jul-06 17:33N 67°30' E 014°23'1110.7
2016-Jul-06 16:32N 67°40' E 014°16'  

Dump ship's entire track history